Time;durP1;ratioP1;P1;durP2;ratioP2;P2;SDS_P1;SDS_P2;PMS_P1;PMS_P2;Temp;Humidity;BMP_temperature;BMP_pressure;BME280_temperature;BME280_humidity;BME280_pressure;Samples;Min_cycle;Max_cycle;Signal;HPM_P1;HPM_P2
2022/01/23 06:19:52;;;;;;;1.85;1.30;;;17.60;49.10;;;;;;6169119;23;20646;-88
2022/01/23 06:22:20;;;;;;;2.00;1.30;;;17.70;49.70;;;;;;6121862;23;20136;-88
2022/01/23 06:24:57;;;;;;;1.30;1.20;;;17.60;49.50;;;;;;6097856;23;20151;-87
2022/01/23 06:27:30;;;;;;;1.70;1.35;;;17.60;49.60;;;;;;6098088;23;20135;-87
2022/01/23 06:30:47;;;;;;;1.60;1.30;;;17.60;49.60;;;;;;6033696;23;20241;-88
2022/01/23 06:33:13;;;;;;;2.28;1.58;;;17.60;49.40;;;;;;6053739;23;20165;-88
2022/01/23 06:35:44;;;;;;;1.80;1.45;;;17.60;49.40;;;;;;6001456;23;20155;-87
2022/01/23 06:38:11;;;;;;;1.52;1.20;;;17.60;49.40;;;;;;5924044;24;20155;-87
2022/01/23 06:40:36;;;;;;;1.75;1.38;;;17.60;49.20;;;;;;5922592;24;20163;-86
2022/01/23 06:43:12;;;;;;;1.77;1.30;;;17.60;49.50;;;;;;5946303;24;20192;-88
2022/01/23 06:45:38;;;;;;;2.00;1.20;;;17.60;49.30;;;;;;5943459;24;20156;-87
2022/01/23 06:48:04;;;;;;;2.17;1.60;;;17.60;49.50;;;;;;5917314;24;20424;-87
2022/01/23 06:50:32;;;;;;;2.15;1.40;;;17.60;49.80;;;;;;5836431;24;20192;-87
2022/01/23 06:53:04;;;;;;;1.70;1.30;;;17.50;49.70;;;;;;5836783;24;20162;-87
2022/01/23 06:55:41;;;;;;;2.60;1.60;;;17.60;49.80;;;;;;5860036;24;20162;-87
2022/01/23 06:58:07;;;;;;;2.55;1.50;;;17.60;49.50;;;;;;5859298;24;20166;-87
2022/01/23 07:00:33;;;;;;;1.90;1.40;;;17.60;49.10;;;;;;5838521;24;20158;-87
2022/01/23 07:03:07;;;;;;;1.70;1.48;;;17.60;49.60;;;;;;5840328;24;20164;-87
2022/01/23 07:05:44;;;;;;;1.95;1.30;;;17.60;49.80;;;;;;5841440;24;20163;-86
2022/01/23 07:08:18;;;;;;;1.85;1.38;;;17.60;49.90;;;;;;5890325;24;20154;-87
2022/01/23 07:10:50;;;;;;;2.45;1.42;;;17.60;50.00;;;;;;5939566;24;20271;-87
2022/01/23 07:13:23;;;;;;;1.90;1.10;;;17.50;49.90;;;;;;5965185;23;20182;-87
2022/01/23 07:15:51;;;;;;;2.90;1.40;;;17.60;50.00;;;;;;6023061;23;20161;-87
2022/01/23 07:18:18;;;;;;;2.00;1.38;;;17.50;49.70;;;;;;5999357;23;20238;-88
2022/01/23 07:20:47;;;;;;;2.00;1.38;;;17.50;49.90;;;;;;5964461;23;20164;-87
2022/01/23 07:23:21;;;;;;;1.73;1.48;;;17.50;49.90;;;;;;6027249;23;20157;-87
2022/01/23 07:25:52;;;;;;;2.25;1.50;;;17.50;49.90;;;;;;5984642;24;20152;-87
2022/01/23 07:28:22;;;;;;;2.42;1.35;;;17.60;50.00;;;;;;5971904;24;20158;-87
2022/01/23 07:30:53;;;;;;;1.88;1.23;;;17.50;49.80;;;;;;5972577;24;20183;-87
2022/01/23 07:33:21;;;;;;;1.70;1.50;;;17.60;49.90;;;;;;5972557;24;20166;-87
2022/01/23 07:36:01;;;;;;;1.55;1.35;;;17.60;50.00;;;;;;5973030;24;20184;-88
2022/01/23 07:38:37;;;;;;;2.72;1.50;;;17.60;49.60;;;;;;5972795;24;20159;-87
2022/01/23 07:41:05;;;;;;;2.17;1.63;;;17.60;49.80;;;;;;5972433;24;20159;-87
2022/01/23 07:43:36;;;;;;;2.63;1.50;;;17.60;49.80;;;;;;5974677;24;20188;-87
2022/01/23 07:46:09;;;;;;;1.80;1.48;;;17.60;49.80;;;;;;5974251;24;20155;-87
2022/01/23 07:48:35;;;;;;;1.33;1.13;;;17.60;49.70;;;;;;5979773;23;20202;-87
2022/01/23 07:51:08;;;;;;;1.63;1.45;;;17.60;49.60;;;;;;5977385;23;20551;-88
2022/01/23 07:53:34;;;;;;;2.00;1.58;;;17.60;49.30;;;;;;6045048;23;20160;-87
2022/01/23 07:56:26;;;;;;;2.15;1.27;;;17.70;48.80;;;;;;6068778;23;20643;-88
2022/01/23 07:58:57;;;;;;;2.47;1.52;;;17.80;49.10;;;;;;6072040;23;20137;-89
2022/01/23 08:01:27;;;;;;;1.48;1.33;;;17.90;48.80;;;;;;6060335;23;20285;-87
2022/01/23 08:03:57;;;;;;;2.30;1.75;;;17.90;48.50;;;;;;6006156;23;20164;-88
2022/01/23 08:07:21;;;;;;;3.53;1.95;;;18.00;48.80;;;;;;5982893;23;20209;-88
2022/01/23 08:09:52;;;;;;;2.95;1.50;;;18.00;48.60;;;;;;5971221;24;20190;-88
2022/01/23 08:12:21;;;;;;;3.60;1.55;;;18.10;47.80;;;;;;5976869;24;20160;-88
2022/01/23 08:14:57;;;;;;;4.07;1.70;;;18.20;47.90;;;;;;5925448;24;20570;-88
2022/01/23 08:17:30;;;;;;;2.50;1.40;;;18.20;47.80;;;;;;5913578;24;20221;-88
2022/01/23 08:19:57;;;;;;;1.75;1.27;;;18.20;47.90;;;;;;5917818;24;20161;-88
2022/01/23 08:22:26;;;;;;;2.03;1.30;;;18.20;47.80;;;;;;5922287;24;20187;-88
2022/01/23 08:24:56;;;;;;;2.08;1.38;;;18.20;47.90;;;;;;5946450;24;20184;-88
2022/01/23 08:27:38;;;;;;;3.47;1.48;;;18.20;47.50;;;;;;5975158;23;20148;-88
2022/01/23 08:30:17;;;;;;;1.75;1.27;;;18.30;47.50;;;;;;5984381;23;20642;-88
2022/01/23 08:32:56;;;;;;;3.72;1.40;;;18.30;47.60;;;;;;5983837;23;20179;-88
2022/01/23 08:35:31;;;;;;;3.22;1.27;;;18.30;47.70;;;;;;6084523;23;20152;-88
2022/01/23 08:43:34;;;;;;;3.03;1.30;;;18.30;47.10;;;;;;6046973;23;20538;-86
2022/01/23 08:46:20;;;;;;;1.60;1.30;;;18.40;47.40;;;;;;6139968;23;20144;-88
2022/01/23 08:49:12;;;;;;;3.08;1.40;;;18.30;47.10;;;;;;6004072;23;20148;-88
2022/01/23 08:51:40;;;;;;;5.78;1.48;;;18.40;47.30;;;;;;6059310;23;20295;-88
2022/01/23 08:54:28;;;;;;;;;;;;;;;;;;;;;
2022/01/23 08:57:32;;;;;;;2.88;1.52;;;18.30;47.40;;;;;;6050559;23;20158;-90
2022/01/23 09:00:08;;;;;;;3.45;1.73;;;18.40;47.70;;;;;;6052720;23;20216;-89
2022/01/23 09:02:37;;;;;;;2.53;1.40;;;18.40;47.80;;;;;;5971011;23;20158;-87
2022/01/23 09:05:21;;;;;;;3.40;1.33;;;18.40;47.90;;;;;;5975961;23;20159;-86
2022/01/23 09:08:25;;;;;;;;;;;;;;;;;;;;;
2022/01/23 09:11:06;;;;;;;2.95;1.40;;;18.50;47.40;;;;;;5955379;24;20195;-89
2022/01/23 09:13:54;;;;;;;4.35;2.00;;;18.50;47.70;;;;;;5992563;24;20151;-88
2022/01/23 09:16:57;;;;;;;3.60;1.40;;;18.50;47.80;;;;;;5984500;24;20155;-89
2022/01/23 09:20:05;;;;;;;2.63;1.33;;;18.50;48.10;;;;;;5903620;24;20225;-88
2022/01/23 09:22:31;;;;;;;3.53;1.50;;;18.50;48.00;;;;;;5879886;24;20234;-87
2022/01/23 09:25:00;;;;;;;4.80;1.50;;;18.50;48.00;;;;;;5855260;24;20161;-87
2022/01/23 09:27:26;;;;;;;8.15;1.40;;;18.50;48.10;;;;;;5878969;24;20161;-86
2022/01/23 09:29:54;;;;;;;2.85;1.23;;;18.50;48.20;;;;;;5858775;24;20189;-89
2022/01/23 09:32:25;;;;;;;3.25;1.48;;;18.60;48.00;;;;;;5879326;24;20207;-88
2022/01/23 09:34:51;;;;;;;4.38;1.63;;;18.60;48.00;;;;;;5918007;24;20164;-88
2022/01/23 09:37:21;;;;;;;6.05;1.70;;;18.60;48.10;;;;;;5917312;24;20152;-87
2022/01/23 09:39:53;;;;;;;6.25;1.55;;;18.60;47.70;;;;;;5890211;24;20481;-88
2022/01/23 09:42:43;;;;;;;5.78;1.50;;;18.60;47.90;;;;;;5917032;24;20166;-88
2022/01/23 09:45:35;;;;;;;5.25;1.63;;;18.60;47.70;;;;;;5864893;24;20209;-87
2022/01/23 09:49:07;;;;;;;3.95;1.60;;;18.60;47.60;;;;;;5829469;24;20178;-90
2022/01/23 09:51:38;;;;;;;4.57;1.65;;;18.70;47.60;;;;;;5834147;24;20254;-89
2022/01/23 09:54:25;;;;;;;5.68;1.50;;;18.70;47.40;;;;;;5832719;24;20163;-90
2022/01/23 09:56:59;;;;;;;9.00;1.83;;;18.70;48.00;;;;;;5820499;24;20172;-87
2022/01/23 09:59:34;;;;;;;4.25;1.63;;;18.80;48.00;;;;;;5797312;24;20185;-89
2022/01/23 10:03:07;;;;;;;6.43;1.73;;;18.70;47.60;;;;;;5776680;24;20171;-90
2022/01/23 10:05:38;;;;;;;8.27;1.67;;;18.70;48.00;;;;;;5747792;24;20260;-89
2022/01/23 10:08:20;;;;;;;7.43;1.95;;;18.70;48.30;;;;;;5732377;25;20157;-88
2022/01/23 10:10:50;;;;;;;6.18;1.77;;;18.70;48.00;;;;;;5734079;25;20254;-89
2022/01/23 10:13:21;;;;;;;11.18;1.92;;;18.70;48.00;;;;;;5693203;25;20181;-87
2022/01/23 10:16:51;;;;;;;9.35;2.00;;;18.70;47.90;;;;;;5730172;25;20194;-88
2022/01/23 10:19:33;;;;;;;6.70;1.73;;;18.70;48.00;;;;;;5725688;25;20162;-88
2022/01/23 10:22:36;;;;;;;9.52;1.77;;;18.70;48.20;;;;;;5707572;25;20163;-87
2022/01/23 10:25:30;;;;;;;5.28;1.40;;;18.70;48.20;;;;;;5749254;24;20164;-88
2022/01/23 10:28:16;;;;;;;12.43;2.10;;;18.70;48.40;;;;;;5723836;25;20170;-87
2022/01/23 10:30:56;;;;;;;6.35;1.90;;;18.70;48.30;;;;;;5713839;24;20201;-88
2022/01/23 10:33:37;;;;;;;6.43;1.80;;;18.70;48.20;;;;;;5695331;25;20174;-88
2022/01/23 10:36:17;;;;;;;5.43;1.60;;;18.70;48.40;;;;;;5699583;25;20162;-87
2022/01/23 10:39:04;;;;;;;7.88;1.52;;;18.70;47.90;;;;;;5680581;25;20170;-87
2022/01/23 10:41:50;;;;;;;4.47;1.70;;;18.60;49.10;;;;;;5667536;25;20181;-88
2022/01/23 10:47:47;;;;;;;4.70;2.10;;;18.60;48.80;;;;;;5798700;24;20171;-88
2022/01/23 10:50:06;;;;;;;5.25;1.50;;;18.60;48.60;;;;;;5809575;24;20229;-88
2022/01/23 10:52:38;;;;;;;4.93;1.60;;;18.70;48.80;;;;;;5829500;24;20160;-88
2022/01/23 10:55:27;;;;;;;6.25;1.67;;;18.70;48.50;;;;;;5789398;24;20160;-88
2022/01/23 10:58:17;;;;;;;4.80;1.52;;;18.60;48.70;;;;;;5829662;24;20172;-88
2022/01/23 11:00:50;;;;;;;7.53;1.92;;;18.70;48.50;;;;;;5826746;24;20299;-88
2022/01/23 11:03:18;;;;;;;7.65;1.83;;;18.70;48.70;;;;;;5859222;24;20643;-88
2022/01/23 11:05:44;;;;;;;5.05;1.67;;;18.70;48.70;;;;;;5877791;24;20163;-87
2022/01/23 11:08:23;;;;;;;4.43;1.60;;;18.70;49.40;;;;;;5939668;24;20178;-87
2022/01/23 11:10:56;;;;;;;5.93;1.50;;;18.70;48.70;;;;;;5919112;24;20199;-87
2022/01/23 11:19:51;;;;;;;;;;;;;;;;;;;;;
2022/01/23 11:22:34;;;;;;;4.10;1.50;;;18.70;48.80;;;;;;5850560;24;20159;-88
2022/01/23 11:25:47;;;;;;;3.50;1.83;;;18.70;49.00;;;;;;5832627;24;20163;-87
2022/01/23 11:28:43;;;;;;;3.47;1.27;;;18.70;48.70;;;;;;5832477;24;20170;-87
2022/01/23 11:31:23;;;;;;;3.67;1.33;;;18.70;48.70;;;;;;5886029;24;20193;-87
2022/01/23 11:34:49;;;;;;;5.57;1.30;;;18.70;48.80;;;;;;5890726;24;20166;-88
2022/01/23 11:38:32;;;;;;;4.72;1.65;;;18.70;48.70;;;;;;5783504;24;20173;-89
2022/01/23 11:53:55;;;;;;;;;;;;;;;;;;;;;
2022/01/23 11:57:03;;;;;;;6.07;1.73;;;18.80;48.30;;;;;;5678908;25;20167;-87
2022/01/23 12:00:05;;;;;;;3.40;1.60;;;18.80;48.60;;;;;;5640155;25;20204;-89
2022/01/23 12:03:15;;;;;;;3.90;1.52;;;18.70;48.40;;;;;;5611532;25;20176;-89
2022/01/23 12:06:14;;;;;;;2.92;1.48;;;18.70;48.10;;;;;;5632880;25;20178;-89
2022/01/23 12:16:26;;;;;;;3.67;1.58;;;18.80;48.70;;;;;;5719232;25;20159;-89
2022/01/23 12:26:22;;;;;;;2.70;1.42;;;18.80;48.70;;;;;;5627944;25;20164;-89
2022/01/23 12:32:30;;;;;;;2.35;1.30;;;18.80;48.60;;;;;;5600779;25;20212;-89
2022/01/23 12:35:22;;;;;;;3.80;1.50;;;18.80;48.70;;;;;;5511468;26;20168;-89
2022/01/23 12:38:09;;;;;;;4.35;1.45;;;18.80;48.60;;;;;;5537647;25;20172;-88
2022/01/23 12:44:54;;;;;;;4.00;1.67;;;18.80;48.50;;;;;;5930121;24;20257;-87
2022/01/23 12:47:52;;;;;;;2.45;1.45;;;18.80;48.70;;;;;;5975126;24;20155;-89
2022/01/23 12:58:35;;;;;;;;;;;;;;;;;;;;;
2022/01/23 13:01:43;;;;;;;2.88;1.30;;;18.80;48.50;;;;;;5779170;24;20501;-89
2022/01/23 13:04:34;;;;;;;2.05;1.30;;;18.80;48.40;;;;;;5769280;24;20165;-89
2022/01/23 13:08:07;;;;;;;3.63;1.58;;;18.80;48.50;;;;;;5756569;24;20234;-88
2022/01/23 13:14:03;;;;;;;1.67;1.30;;;18.80;48.50;;;;;;5700625;25;20675;-87
2022/01/23 13:35:18;;;;;;;2.20;1.27;;;18.80;48.20;;;;;;6229688;22;1497451;-87
2022/01/23 13:37:55;;;;;;;3.08;1.15;;;18.90;48.30;;;;;;6212545;22;20168;-88
2022/01/23 13:40:26;;;;;;;2.88;1.30;;;18.80;48.30;;;;;;6238851;22;20155;-87
2022/01/23 13:47:54;;;;;;;1.45;1.25;;;18.80;48.20;;;;;;6237899;22;20132;-87
2022/01/23 13:51:34;;;;;;;2.63;1.20;;;18.80;48.30;;;;;;6250916;22;20208;-88
2022/01/23 13:57:31;;;;;;;2.13;1.30;;;18.90;48.50;;;;;;6219093;22;20133;-87
2022/01/23 14:00:26;;;;;;;2.45;1.25;;;18.80;48.10;;;;;;6230688;22;20171;-88
2022/01/23 14:02:54;;;;;;;2.13;1.20;;;18.80;48.10;;;;;;6165979;23;20166;-87
2022/01/23 14:05:29;;;;;;;1.92;1.48;;;18.90;48.20;;;;;;6109329;23;20692;-86
2022/01/23 14:07:57;;;;;;;1.23;1.10;;;18.90;48.30;;;;;;6109780;23;20160;-87
2022/01/23 14:10:29;;;;;;;1.95;1.13;;;18.80;48.50;;;;;;6110830;23;20207;-87
2022/01/23 14:13:03;;;;;;;1.65;1.08;;;18.80;48.80;;;;;;6112791;23;20183;-88
2022/01/23 14:15:31;;;;;;;3.92;1.30;;;18.90;48.30;;;;;;6113811;23;20525;-87
2022/01/23 14:18:26;;;;;;;3.67;1.30;;;18.80;49.00;;;;;;6087329;23;20187;-88
2022/01/23 14:21:01;;;;;;;4.43;1.45;;;18.80;48.90;;;;;;6089060;23;20639;-88
2022/01/23 14:23:40;;;;;;;3.55;1.30;;;18.90;49.40;;;;;;6036946;23;20153;-88
2022/01/23 14:26:21;;;;;;;3.03;1.27;;;18.90;49.20;;;;;;6031607;23;20145;-88
2022/01/23 14:28:52;;;;;;;4.93;1.40;;;18.90;48.60;;;;;;5975958;24;20159;-87
2022/01/23 14:32:02;;;;;;;;;;;;;;;;;;;;;
2022/01/23 14:34:28;;;;;;;3.05;1.20;;;18.90;48.80;;;;;;5953632;24;20243;-86
2022/01/23 14:36:56;;;;;;;3.35;1.23;;;18.90;48.60;;;;;;5949780;24;20235;-89
2022/01/23 14:39:25;;;;;;;2.05;1.27;;;18.90;48.70;;;;;;5947594;24;20211;-88
2022/01/23 14:42:18;;;;;;;3.65;1.10;;;18.90;48.40;;;;;;5906126;24;20169;-86
2022/01/23 14:44:57;;;;;;;2.60;1.25;;;18.90;48.50;;;;;;5884064;24;20161;-88
2022/01/23 14:47:23;;;;;;;6.20;1.40;;;18.90;48.70;;;;;;5883178;24;20236;-89
2022/01/23 14:50:02;;;;;;;1.48;1.10;;;18.90;48.60;;;;;;5860296;24;20653;-88
2022/01/23 14:52:28;;;;;;;4.25;1.42;;;18.90;48.70;;;;;;5830324;24;20211;-88
2022/01/23 14:55:04;;;;;;;2.15;1.10;;;18.90;48.50;;;;;;5862297;24;20186;-87
2022/01/23 15:01:18;;;;;;;3.45;1.33;;;18.90;48.40;;;;;;5967097;24;20163;-88
2022/01/23 15:03:52;;;;;;;4.43;1.38;;;18.90;48.50;;;;;;5963397;24;20156;-87
2022/01/23 15:06:42;;;;;;;2.78;1.30;;;18.90;48.20;;;;;;5938625;24;20228;-85
2022/01/23 15:09:16;;;;;;;3.30;1.20;;;18.90;48.20;;;;;;5882762;24;20237;-87
2022/01/23 15:11:46;;;;;;;3.83;1.40;;;19.00;48.20;;;;;;5859343;24;20159;-87
2022/01/23 15:14:18;;;;;;;2.10;1.20;;;19.00;47.00;;;;;;5935552;24;20172;-87
2022/01/23 15:16:51;;;;;;;2.50;1.25;;;19.00;46.90;;;;;;5938113;24;20458;-88
2022/01/23 15:19:21;;;;;;;3.45;1.45;;;19.00;46.60;;;;;;5936101;24;20189;-88
2022/01/23 15:21:57;;;;;;;1.70;1.15;;;19.00;46.80;;;;;;5938055;24;20266;-88
2022/01/23 15:24:23;;;;;;;3.38;1.30;;;19.00;47.80;;;;;;5937330;24;20193;-89
2022/01/23 15:26:51;;;;;;;2.67;1.13;;;19.00;48.30;;;;;;5940398;24;20225;-88
2022/01/23 15:29:32;;;;;;;3.22;1.30;;;19.00;48.20;;;;;;5967575;24;20152;-87
2022/01/23 15:32:04;;;;;;;4.68;1.40;;;18.90;48.20;;;;;;5941832;24;20160;-89
2022/01/23 15:34:44;;;;;;;3.72;1.20;;;18.90;48.60;;;;;;5988968;24;20219;-88
2022/01/23 15:37:21;;;;;;;2.67;1.42;;;18.90;48.80;;;;;;6020702;23;20529;-87
2022/01/23 15:40:19;;;;;;;3.40;1.40;;;18.90;48.80;;;;;;6048589;23;20200;-87
2022/01/23 15:42:54;;;;;;;4.18;1.30;;;19.00;48.70;;;;;;5992683;23;20162;-87
2022/01/23 15:45:23;;;;;;;2.08;1.15;;;18.90;48.70;;;;;;5994797;23;20150;-87
2022/01/23 15:47:51;;;;;;;1.25;1.10;;;19.00;48.80;;;;;;5999093;23;20169;-87
2022/01/23 15:50:19;;;;;;;1.33;1.23;;;18.90;48.90;;;;;;6020199;23;20158;-86
2022/01/23 15:52:53;;;;;;;1.73;1.10;;;18.90;49.70;;;;;;6017279;23;20159;-87
2022/01/23 15:55:20;;;;;;;2.92;1.40;;;18.90;49.30;;;;;;5959209;24;20167;-87
2022/01/23 15:57:48;;;;;;;3.10;1.15;;;18.90;49.60;;;;;;5959818;24;20263;-86
2022/01/23 16:00:23;;;;;;;4.60;1.30;;;18.90;49.50;;;;;;5958962;24;20270;-86
2022/01/23 16:03:11;;;;;;;2.83;1.40;;;18.90;49.30;;;;;;5988663;24;20513;-87
2022/01/23 16:05:39;;;;;;;3.47;1.17;;;18.90;49.70;;;;;;5970262;24;20163;-87
2022/01/23 16:08:35;;;;;;;5.78;1.50;;;18.90;49.40;;;;;;5909038;24;20641;-87
2022/01/23 16:11:42;;;;;;;5.00;1.42;;;19.00;49.60;;;;;;5878377;24;20192;-87
2022/01/23 16:14:40;;;;;;;3.50;1.10;;;19.00;49.60;;;;;;5900966;24;20160;-86
2022/01/23 16:17:25;;;;;;;3.45;1.38;;;19.00;49.10;;;;;;5917491;24;20229;-86
2022/01/23 16:20:33;;;;;;;5.03;1.83;;;19.00;49.00;;;;;;5871847;24;20180;-89
2022/01/23 16:24:05;;;;;;;4.35;1.30;;;19.00;49.20;;;;;;5937715;24;20168;-88
2022/01/23 16:27:00;;;;;;;;;;;;;;;;;;;;;
2022/01/23 16:37:05;;;;;;;;;;;;;;;;;;;;;
2022/01/23 16:40:07;;;;;;;3.80;1.50;;;19.00;49.30;;;;;;5849521;24;20314;-87
2022/01/23 16:43:03;;;;;;;4.22;1.30;;;19.00;49.00;;;;;;5828765;24;20173;-88
2022/01/23 16:46:00;;;;;;;2.38;1.20;;;19.00;49.00;;;;;;5859319;24;20163;-88
2022/01/23 16:49:02;;;;;;;2.88;1.20;;;19.00;48.90;;;;;;5799644;24;20450;-88
2022/01/23 16:52:04;;;;;;;2.85;1.50;;;19.00;49.00;;;;;;5811318;24;20191;-88
2022/01/23 16:54:35;;;;;;;3.83;1.30;;;19.00;48.90;;;;;;5823170;24;20207;-88
2022/01/23 16:57:07;;;;;;;7.03;1.30;;;19.00;49.40;;;;;;5826202;24;20159;-87
2022/01/23 16:59:53;;;;;;;5.60;1.52;;;19.00;48.80;;;;;;5838254;24;20199;-89
2022/01/23 17:02:42;;;;;;;9.40;1.67;;;19.00;49.70;;;;;;5843652;24;20178;-87
2022/01/23 17:05:13;;;;;;;8.68;1.50;;;19.00;49.70;;;;;;5800056;24;20163;-88
2022/01/23 17:07:43;;;;;;;6.18;1.58;;;19.00;49.70;;;;;;5872947;24;20176;-86
2022/01/23 17:10:19;;;;;;;5.47;1.27;;;19.00;49.10;;;;;;5952836;23;20186;-86
2022/01/23 17:13:14;;;;;;;8.45;1.48;;;19.00;48.50;;;;;;6016767;23;20155;-88
2022/01/23 17:16:40;;;;;;;10.05;1.45;;;19.10;49.60;;;;;;6069731;23;20152;-87
2022/01/23 17:19:24;;;;;;;8.02;1.85;;;19.10;49.30;;;;;;6049304;23;20240;-87
2022/01/23 17:21:51;;;;;;;10.45;1.25;;;19.10;49.40;;;;;;5987337;23;20152;-87
2022/01/23 17:24:40;;;;;;;12.32;1.83;;;19.10;48.80;;;;;;5922189;24;20151;-88
2022/01/23 17:27:07;;;;;;;7.50;1.40;;;19.10;49.30;;;;;;5990022;23;20183;-88
2022/01/23 17:29:34;;;;;;;11.00;1.67;;;19.10;49.20;;;;;;5992917;24;20643;-87
2022/01/23 17:32:09;;;;;;;6.00;1.55;;;19.10;49.00;;;;;;5994048;23;20245;-89
2022/01/23 17:35:22;;;;;;;6.65;1.60;;;19.10;49.00;;;;;;5993464;23;20170;-87
2022/01/23 17:38:07;;;;;;;8.52;1.67;;;19.10;49.40;;;;;;5948436;23;20209;-86
2022/01/23 17:41:04;;;;;;;7.72;1.73;;;18.90;49.50;;;;;;5993991;23;20170;-90
2022/01/23 17:43:53;;;;;;;5.90;1.50;;;19.00;49.60;;;;;;5937319;24;21129;-88
2022/01/23 17:46:32;;;;;;;5.53;1.65;;;19.00;49.40;;;;;;5913170;24;20156;-87
2022/01/23 17:49:09;;;;;;;7.88;1.80;;;19.00;49.80;;;;;;5915036;24;20240;-88
2022/01/23 17:51:51;;;;;;;5.35;1.55;;;19.00;49.40;;;;;;5878959;24;20170;-87
2022/01/23 17:54:35;;;;;;;4.53;1.42;;;19.00;49.40;;;;;;5931381;23;20212;-87
2022/01/23 17:57:06;;;;;;;6.35;1.58;;;19.00;49.50;;;;;;5978028;23;20157;-86
2022/01/23 17:59:39;;;;;;;7.28;1.63;;;18.90;49.40;;;;;;5973219;23;20325;-86
2022/01/23 18:02:20;;;;;;;6.10;1.60;;;19.00;50.20;;;;;;5978541;23;20614;-87
2022/01/23 18:05:19;;;;;;;5.75;1.60;;;19.00;49.80;;;;;;6002400;23;20158;-86
2022/01/23 18:07:59;;;;;;;8.25;1.80;;;19.00;49.80;;;;;;6008409;23;20154;-88
2022/01/23 18:10:46;;;;;;;9.48;1.60;;;19.00;49.60;;;;;;5981127;23;20155;-89
2022/01/23 18:13:22;;;;;;;4.95;1.40;;;19.00;50.30;;;;;;6079731;23;20156;-88
2022/01/23 18:15:57;;;;;;;4.45;1.33;;;19.00;49.70;;;;;;6009200;23;20163;-88
2022/01/23 18:18:40;;;;;;;7.15;1.65;;;19.00;49.40;;;;;;6029451;23;20546;-88
2022/01/23 18:21:11;;;;;;;5.97;1.52;;;19.00;49.80;;;;;;6029830;23;20157;-89
2022/01/23 18:23:52;;;;;;;9.85;2.05;;;19.00;49.70;;;;;;6127628;23;20230;-88
2022/01/23 18:26:32;;;;;;;5.57;1.25;;;19.00;50.30;;;;;;6069908;23;20639;-88
2022/01/23 18:29:14;;;;;;;6.10;1.50;;;18.90;50.00;;;;;;6023418;23;20157;-89
2022/01/23 18:32:01;;;;;;;4.53;1.55;;;18.90;50.40;;;;;;5929473;24;20161;-89
2022/01/23 18:34:43;;;;;;;8.32;1.73;;;18.90;50.00;;;;;;5890114;24;20161;-88
2022/01/23 18:37:35;;;;;;;9.65;1.60;;;18.90;50.10;;;;;;5869205;24;20208;-88
2022/01/23 18:40:40;;;;;;;;;;;;;;;;;;;;;
2022/01/23 18:43:38;;;;;;;6.72;1.40;;;18.90;50.20;;;;;;5828865;24;20186;-88
2022/01/23 18:46:16;;;;;;;7.38;1.50;;;18.90;49.80;;;;;;5862486;24;20158;-88
2022/01/23 18:48:49;;;;;;;5.55;1.48;;;18.90;50.00;;;;;;5900311;24;20161;-89
2022/01/23 18:51:35;;;;;;;;;;;;;;;;;;;;;
2022/01/23 18:54:14;;;;;;;5.32;1.80;;;18.90;50.00;;;;;;5901401;24;20187;-88
2022/01/23 18:56:56;;;;;;;6.53;1.67;;;18.90;49.80;;;;;;5987803;24;20228;-88
2022/01/23 18:59:30;;;;;;;4.53;1.65;;;18.90;49.70;;;;;;6009749;23;20273;-88
2022/01/23 19:02:14;;;;;;;8.45;1.60;;;19.00;49.50;;;;;;6040628;23;20148;-89
2022/01/23 19:04:56;;;;;;;7.65;1.60;;;18.90;50.20;;;;;;6126325;23;20148;-88
2022/01/23 19:07:57;;;;;;;6.70;1.70;;;18.90;49.60;;;;;;6120436;23;20158;-88
2022/01/23 19:10:44;;;;;;;7.15;1.75;;;18.90;49.90;;;;;;6178306;23;20149;-88
2022/01/23 19:13:18;;;;;;;2.65;1.40;;;18.90;50.00;;;;;;6162455;23;20162;-89
2022/01/23 19:15:53;;;;;;;3.75;1.40;;;18.90;49.80;;;;;;6038516;23;20158;-88
2022/01/23 19:18:30;;;;;;;;;;;;;;;;;;;;;
2022/01/23 19:21:10;;;;;;;;;;;;;;;;;;;;;
2022/01/23 19:23:38;;;;;;;4.00;1.38;;;18.90;49.90;;;;;;6111078;23;20171;-87
2022/01/23 19:26:22;;;;;;;6.13;1.50;;;18.90;50.00;;;;;;6113488;23;20154;-88
2022/01/23 19:29:06;;;;;;;;;;;;;;;;;;;;;
2022/01/23 19:32:22;;;;;;;5.32;1.50;;;18.90;49.60;;;;;;6070778;23;20174;-88
2022/01/23 19:34:55;;;;;;;6.88;1.58;;;18.90;49.00;;;;;;6043587;23;20158;-88
2022/01/23 19:37:38;;;;;;;4.43;1.35;;;18.90;49.60;;;;;;6041491;23;20296;-88
2022/01/23 19:40:06;;;;;;;3.15;1.60;;;18.90;49.90;;;;;;6041878;23;20701;-88
2022/01/23 19:43:05;;;;;;;3.83;1.45;;;18.90;49.30;;;;;;6009797;23;20162;-88
2022/01/23 19:45:28;;;;;;;2.97;1.30;;;18.90;49.50;;;;;;6060484;23;20158;-88
2022/01/23 19:48:14;;;;;;;4.93;1.00;;;18.90;49.50;;;;;;5990480;23;20158;-88
2022/01/23 19:50:42;;;;;;;2.40;1.30;;;18.90;49.20;;;;;;5955549;24;20204;-88
2022/01/23 19:53:15;;;;;;;4.68;1.42;;;18.90;49.70;;;;;;5982434;24;20524;-87
2022/01/23 19:55:49;;;;;;;4.60;1.50;;;18.90;49.70;;;;;;5877822;24;20161;-88
2022/01/23 19:58:24;;;;;;;3.47;1.40;;;18.90;49.60;;;;;;5899184;24;20213;-88
2022/01/23 20:00:55;;;;;;;4.35;1.38;;;18.90;49.70;;;;;;5866607;24;20176;-88
2022/01/23 20:03:28;;;;;;;5.53;1.60;;;18.90;49.60;;;;;;5899853;24;20154;-88
2022/01/23 20:05:59;;;;;;;3.15;1.30;;;18.90;50.10;;;;;;5848906;24;20159;-87
2022/01/23 20:08:32;;;;;;;1.58;1.05;;;18.80;49.60;;;;;;5849670;24;20167;-87
2022/01/23 20:13:43;;;;;;;2.83;1.35;;;18.80;49.20;;;;;;5959751;24;20156;-87
2022/01/23 20:16:18;;;;;;;3.08;1.23;;;18.80;49.70;;;;;;5891162;24;20187;-88
2022/01/23 20:18:51;;;;;;;3.03;1.38;;;18.90;49.70;;;;;;5975870;23;20186;-88
2022/01/23 20:21:17;;;;;;;4.35;1.52;;;18.80;49.90;;;;;;5947428;23;20153;-87
2022/01/23 20:23:53;;;;;;;1.90;1.40;;;18.80;49.60;;;;;;5981340;24;20345;-89
2022/01/23 20:26:31;;;;;;;3.60;1.50;;;18.90;49.40;;;;;;5980684;23;20161;-88
2022/01/23 20:28:58;;;;;;;5.00;1.50;;;18.90;49.60;;;;;;5995430;23;20162;-88
2022/01/23 20:31:33;;;;;;;4.22;1.38;;;18.90;49.60;;;;;;6018629;23;20506;-88
2022/01/23 20:34:00;;;;;;;7.80;1.45;;;18.90;49.70;;;;;;6013097;23;20155;-88
2022/01/23 20:36:32;;;;;;;3.63;1.50;;;18.90;49.70;;;;;;5946156;23;20180;-88
2022/01/23 20:39:09;;;;;;;1.52;1.00;;;18.90;49.30;;;;;;5946277;23;20226;-88
2022/01/23 20:41:38;;;;;;;1.58;1.10;;;18.90;49.10;;;;;;5935198;24;20211;-88
2022/01/23 20:44:06;;;;;;;4.03;1.25;;;18.90;49.80;;;;;;5935151;24;20609;-87
2022/01/23 20:46:32;;;;;;;2.42;1.33;;;18.80;49.40;;;;;;5956789;24;20180;-88
2022/01/23 20:48:59;;;;;;;2.97;1.20;;;18.90;49.30;;;;;;5956154;24;20167;-88
2022/01/23 20:51:35;;;;;;;2.25;1.23;;;18.90;49.50;;;;;;5956148;24;20435;-89
2022/01/23 20:54:15;;;;;;;1.60;1.27;;;18.80;49.30;;;;;;5956215;24;20492;-87
2022/01/23 20:56:42;;;;;;;3.55;1.20;;;18.80;49.60;;;;;;5932779;24;20166;-88
2022/01/23 20:59:08;;;;;;;2.92;1.42;;;18.80;49.60;;;;;;5974177;23;20225;-87
2022/01/23 21:01:41;;;;;;;3.42;1.20;;;18.80;49.60;;;;;;6030427;23;20150;-87
2022/01/23 21:04:08;;;;;;;4.00;1.40;;;18.80;49.80;;;;;;6064892;23;20164;-88
2022/01/23 21:06:34;;;;;;;4.05;1.38;;;18.80;49.70;;;;;;6079417;23;20160;-88
2022/01/23 21:09:00;;;;;;;1.35;1.00;;;18.70;49.50;;;;;;6079634;23;20183;-88
2022/01/23 21:11:29;;;;;;;2.45;1.33;;;18.80;49.40;;;;;;6109040;23;20152;-88
2022/01/23 21:16:50;;;;;;;1.77;1.23;;;18.80;49.40;;;;;;6137566;23;20146;-88
2022/01/23 21:39:10;;;;;;;3.65;1.40;;;18.60;50.60;;;;;;6156155;23;20276;-88
2022/01/23 21:41:23;;;;;;;3.85;1.20;;;18.60;50.50;;;;;;6159169;23;20157;-87
2022/01/23 21:43:50;;;;;;;2.20;1.45;;;18.60;50.80;;;;;;6147508;23;20146;-88
2022/01/23 21:46:20;;;;;;;1.92;1.10;;;18.60;50.60;;;;;;6201902;23;20146;-87
2022/01/23 21:48:52;;;;;;;3.15;1.20;;;18.60;50.50;;;;;;6176094;23;20242;-88
2022/01/23 21:51:23;;;;;;;2.03;1.10;;;18.50;50.90;;;;;;6175551;23;20149;-87
2022/01/23 21:53:50;;;;;;;1.65;1.20;;;18.50;50.90;;;;;;6228269;23;20149;-88
2022/01/23 21:56:19;;;;;;;2.55;1.30;;;18.50;51.00;;;;;;6226739;23;20534;-87
2022/01/23 21:58:46;;;;;;;2.90;1.10;;;18.50;51.10;;;;;;6203383;23;20247;-87
2022/01/23 22:01:16;;;;;;;1.40;1.27;;;18.50;50.90;;;;;;6201672;23;20145;-87
2022/01/23 22:03:41;;;;;;;5.45;1.33;;;18.50;50.90;;;;;;6151489;23;20221;-87
2022/01/23 22:06:10;;;;;;;1.60;0.88;;;18.50;51.00;;;;;;6197605;23;20480;-87
2022/01/23 22:08:48;;;;;;;2.28;1.20;;;18.50;50.90;;;;;;6201018;23;20568;-88
2022/01/23 22:11:27;;;;;;;1.27;1.17;;;18.50;51.00;;;;;;6176878;23;20184;-87
2022/01/23 22:16:43;;;;;;;2.28;1.30;;;18.50;50.90;;;;;;6230754;23;20171;-88
2022/01/23 22:19:12;;;;;;;3.28;1.15;;;18.40;50.70;;;;;;6226359;23;20181;-87
2022/01/23 22:22:13;;;;;;;5.53;1.67;;;18.40;50.90;;;;;;6227262;23;20142;-87
2022/01/23 22:27:25;;;;;;;4.15;1.25;;;18.40;51.10;;;;;;6185185;23;20154;-87
2022/01/23 22:29:52;;;;;;;2.92;1.40;;;18.30;51.00;;;;;;6204061;23;20141;-87
2022/01/23 22:32:18;;;;;;;3.30;1.30;;;18.40;51.10;;;;;;6226960;23;20207;-88
2022/01/23 22:34:44;;;;;;;3.13;1.10;;;18.40;51.00;;;;;;6202505;23;20149;-87